sensor_id;sensor_type;location;lat;lon;timestamp;temperature;humidity
27384;DHT22;14851;51.166;4.760;2022-12-29T00:01:31;11.00;99.90
27384;DHT22;14851;51.166;4.760;2022-12-29T00:03:57;11.10;99.90
27384;DHT22;14851;51.166;4.760;2022-12-29T00:06:26;11.00;99.90
27384;DHT22;14851;51.166;4.760;2022-12-29T00:08:53;11.10;99.90
27384;DHT22;14851;51.166;4.760;2022-12-29T00:11:23;11.10;99.90
27384;DHT22;14851;51.166;4.760;2022-12-29T00:13:49;11.10;99.90
27384;DHT22;14851;51.166;4.760;2022-12-29T00:16:35;11.20;99.90
27384;DHT22;14851;51.166;4.760;2022-12-29T00:19:01;11.20;99.90
27384;DHT22;14851;51.166;4.760;2022-12-29T00:21:27;11.20;99.90
27384;DHT22;14851;51.166;4.760;2022-12-29T00:24:13;11.40;99.90
27384;DHT22;14851;51.166;4.760;2022-12-29T00:29:41;11.40;99.90
27384;DHT22;14851;51.166;4.760;2022-12-29T00:32:25;11.30;99.90
27384;DHT22;14851;51.166;4.760;2022-12-29T00:35:10;11.30;99.90
27384;DHT22;14851;51.166;4.760;2022-12-29T00:37:42;11.40;99.90
27384;DHT22;14851;51.166;4.760;2022-12-29T00:40:27;11.40;99.90
27384;DHT22;14851;51.166;4.760;2022-12-29T00:43:11;11.50;99.90
27384;DHT22;14851;51.166;4.760;2022-12-29T00:45:55;11.50;99.90
27384;DHT22;14851;51.166;4.760;2022-12-29T00:48:21;11.40;99.90
27384;DHT22;14851;51.166;4.760;2022-12-29T00:51:08;11.60;99.90
27384;DHT22;14851;51.166;4.760;2022-12-29T00:53:34;11.50;99.90
27384;DHT22;14851;51.166;4.760;2022-12-29T00:56:00;11.50;99.90
27384;DHT22;14851;51.166;4.760;2022-12-29T00:58:29;11.50;99.90
27384;DHT22;14851;51.166;4.760;2022-12-29T01:01:01;11.50;99.90
27384;DHT22;14851;51.166;4.760;2022-12-29T01:03:28;11.60;99.90
27384;DHT22;14851;51.166;4.760;2022-12-29T01:05:54;11.60;99.90
27384;DHT22;14851;51.166;4.760;2022-12-29T01:08:20;11.60;99.90
27384;DHT22;14851;51.166;4.760;2022-12-29T01:10:46;11.50;99.90
27384;DHT22;14851;51.166;4.760;2022-12-29T01:13:14;11.50;99.90
27384;DHT22;14851;51.166;4.760;2022-12-29T01:15:41;11.70;99.90
27384;DHT22;14851;51.166;4.760;2022-12-29T01:18:16;11.70;99.90
27384;DHT22;14851;51.166;4.760;2022-12-29T01:20:43;11.70;99.90
27384;DHT22;14851;51.166;4.760;2022-12-29T01:23:08;11.60;99.90
27384;DHT22;14851;51.166;4.760;2022-12-29T01:25:34;11.70;99.90
27384;DHT22;14851;51.166;4.760;2022-12-29T01:28:00;11.70;99.90
27384;DHT22;14851;51.166;4.760;2022-12-29T01:30:25;11.60;99.90
27384;DHT22;14851;51.166;4.760;2022-12-29T01:32:52;11.60;99.90
27384;DHT22;14851;51.166;4.760;2022-12-29T01:35:18;11.70;99.90
27384;DHT22;14851;51.166;4.760;2022-12-29T01:37:44;11.60;99.90
27384;DHT22;14851;51.166;4.760;2022-12-29T01:40:10;11.60;99.90
27384;DHT22;14851;51.166;4.760;2022-12-29T01:42:36;11.50;99.90
27384;DHT22;14851;51.166;4.760;2022-12-29T01:45:09;11.70;99.90
27384;DHT22;14851;51.166;4.760;2022-12-29T01:47:40;11.70;99.90
27384;DHT22;14851;51.166;4.760;2022-12-29T01:50:12;11.70;99.90
27384;DHT22;14851;51.166;4.760;2022-12-29T01:52:43;11.70;99.90
27384;DHT22;14851;51.166;4.760;2022-12-29T01:55:10;11.60;99.90
27384;DHT22;14851;51.166;4.760;2022-12-29T01:57:37;11.60;99.90
27384;DHT22;14851;51.166;4.760;2022-12-29T02:00:07;11.60;99.90
27384;DHT22;14851;51.166;4.760;2022-12-29T02:02:50;11.60;99.90
27384;DHT22;14851;51.166;4.760;2022-12-29T02:08:28;11.70;99.90
27384;DHT22;14851;51.166;4.760;2022-12-29T02:10:56;11.60;99.90
27384;DHT22;14851;51.166;4.760;2022-12-29T02:13:24;11.50;99.90
27384;DHT22;14851;51.166;4.760;2022-12-29T02:16:08;11.50;99.90
27384;DHT22;14851;51.166;4.760;2022-12-29T02:40:57;11.50;99.90
27384;DHT22;14851;51.166;4.760;2022-12-29T02:43:36;11.50;99.90
27384;DHT22;14851;51.166;4.760;2022-12-29T02:46:22;11.40;99.90
27384;DHT22;14851;51.166;4.760;2022-12-29T02:51:59;11.40;99.90
27384;DHT22;14851;51.166;4.760;2022-12-29T02:54:27;11.30;99.90
27384;DHT22;14851;51.166;4.760;2022-12-29T02:59:41;11.30;99.90
27384;DHT22;14851;51.166;4.760;2022-12-29T03:05:18;11.20;99.90
27384;DHT22;14851;51.166;4.760;2022-12-29T03:18:58;11.00;99.90
27384;DHT22;14851;51.166;4.760;2022-12-29T03:21:37;11.00;99.90
27384;DHT22;14851;51.166;4.760;2022-12-29T03:24:44;11.10;99.90
27384;DHT22;14851;51.166;4.760;2022-12-29T03:27:15;11.00;99.90
27384;DHT22;14851;51.166;4.760;2022-12-29T03:29:48;11.00;99.90
27384;DHT22;14851;51.166;4.760;2022-12-29T03:32:21;11.00;99.90
27384;DHT22;14851;51.166;4.760;2022-12-29T03:34:49;11.00;99.90
27384;DHT22;14851;51.166;4.760;2022-12-29T03:37:22;11.00;99.90
27384;DHT22;14851;51.166;4.760;2022-12-29T03:39:49;10.90;99.90
27384;DHT22;14851;51.166;4.760;2022-12-29T03:42:21;10.90;99.90
27384;DHT22;14851;51.166;4.760;2022-12-29T03:44:47;10.90;99.90
27384;DHT22;14851;51.166;4.760;2022-12-29T03:47:15;11.00;99.90
27384;DHT22;14851;51.166;4.760;2022-12-29T03:49:45;10.90;99.90
27384;DHT22;14851;51.166;4.760;2022-12-29T03:52:11;10.90;99.90
27384;DHT22;14851;51.166;4.760;2022-12-29T03:54:42;11.00;99.90
27384;DHT22;14851;51.166;4.760;2022-12-29T03:57:08;11.00;99.90
27384;DHT22;14851;51.166;4.760;2022-12-29T03:59:44;10.90;99.90
27384;DHT22;14851;51.166;4.760;2022-12-29T04:02:11;10.90;99.90
27384;DHT22;14851;51.166;4.760;2022-12-29T04:04:37;10.90;99.90
27384;DHT22;14851;51.166;4.760;2022-12-29T04:07:03;10.90;99.90
27384;DHT22;14851;51.166;4.760;2022-12-29T04:09:30;10.80;99.90
27384;DHT22;14851;51.166;4.760;2022-12-29T04:11:57;10.90;99.90
27384;DHT22;14851;51.166;4.760;2022-12-29T04:14:24;10.90;99.90
27384;DHT22;14851;51.166;4.760;2022-12-29T04:16:51;10.90;99.90
27384;DHT22;14851;51.166;4.760;2022-12-29T04:19:17;10.80;99.90
27384;DHT22;14851;51.166;4.760;2022-12-29T04:21:46;10.80;99.90
27384;DHT22;14851;51.166;4.760;2022-12-29T04:24:12;10.70;99.90
27384;DHT22;14851;51.166;4.760;2022-12-29T04:26:40;10.70;99.90
27384;DHT22;14851;51.166;4.760;2022-12-29T04:29:30;10.80;99.90
27384;DHT22;14851;51.166;4.760;2022-12-29T04:32:14;10.70;99.90
27384;DHT22;14851;51.166;4.760;2022-12-29T04:34:46;10.70;99.90
27384;DHT22;14851;51.166;4.760;2022-12-29T04:37:12;10.80;99.90
27384;DHT22;14851;51.166;4.760;2022-12-29T04:39:41;10.70;99.90
27384;DHT22;14851;51.166;4.760;2022-12-29T04:42:08;10.70;99.90
27384;DHT22;14851;51.166;4.760;2022-12-29T04:44:33;10.70;99.90
27384;DHT22;14851;51.166;4.760;2022-12-29T04:47:11;10.60;99.90
27384;DHT22;14851;51.166;4.760;2022-12-29T04:50:03;10.60;99.90
27384;DHT22;14851;51.166;4.760;2022-12-29T04:52:39;10.60;99.90
27384;DHT22;14851;51.166;4.760;2022-12-29T04:55:07;10.50;99.90
27384;DHT22;14851;51.166;4.760;2022-12-29T04:57:34;10.50;99.90
27384;DHT22;14851;51.166;4.760;2022-12-29T05:00:00;10.50;99.90
27384;DHT22;14851;51.166;4.760;2022-12-29T05:02:28;10.70;99.90
27384;DHT22;14851;51.166;4.760;2022-12-29T05:04:56;10.70;99.90
27384;DHT22;14851;51.166;4.760;2022-12-29T05:07:22;10.70;99.90
27384;DHT22;14851;51.166;4.760;2022-12-29T05:09:48;10.70;99.90
27384;DHT22;14851;51.166;4.760;2022-12-29T05:12:14;10.80;99.90
27384;DHT22;14851;51.166;4.760;2022-12-29T05:14:49;10.90;99.90
27384;DHT22;14851;51.166;4.760;2022-12-29T05:17:16;10.90;99.90
27384;DHT22;14851;51.166;4.760;2022-12-29T05:19:41;11.00;99.90
27384;DHT22;14851;51.166;4.760;2022-12-29T05:22:13;11.10;99.90
27384;DHT22;14851;51.166;4.760;2022-12-29T05:24:40;11.00;99.90
27384;DHT22;14851;51.166;4.760;2022-12-29T05:27:06;11.10;99.90
27384;DHT22;14851;51.166;4.760;2022-12-29T05:29:50;11.10;99.90
27384;DHT22;14851;51.166;4.760;2022-12-29T05:32:19;10.90;99.90
27384;DHT22;14851;51.166;4.760;2022-12-29T05:34:45;10.80;99.90
27384;DHT22;14851;51.166;4.760;2022-12-29T05:37:11;10.90;99.90
27384;DHT22;14851;51.166;4.760;2022-12-29T05:39:42;11.00;99.90
27384;DHT22;14851;51.166;4.760;2022-12-29T05:42:13;11.20;99.90
27384;DHT22;14851;51.166;4.760;2022-12-29T05:44:57;10.90;99.90
27384;DHT22;14851;51.166;4.760;2022-12-29T05:47:56;10.90;99.90
27384;DHT22;14851;51.166;4.760;2022-12-29T05:50:49;11.00;99.90
27384;DHT22;14851;51.166;4.760;2022-12-29T05:53:19;11.10;99.90
27384;DHT22;14851;51.166;4.760;2022-12-29T05:55:49;10.90;99.90
27384;DHT22;14851;51.166;4.760;2022-12-29T05:58:16;11.00;99.90
27384;DHT22;14851;51.166;4.760;2022-12-29T06:00:43;11.00;99.90
27384;DHT22;14851;51.166;4.760;2022-12-29T06:03:12;11.10;99.90
27384;DHT22;14851;51.166;4.760;2022-12-29T06:05:38;10.90;99.90
27384;DHT22;14851;51.166;4.760;2022-12-29T06:08:04;10.90;99.90
27384;DHT22;14851;51.166;4.760;2022-12-29T06:10:31;11.00;99.90
27384;DHT22;14851;51.166;4.760;2022-12-29T06:13:04;10.90;99.90
27384;DHT22;14851;51.166;4.760;2022-12-29T06:15:34;10.80;99.90
27384;DHT22;14851;51.166;4.760;2022-12-29T06:18:02;10.80;99.90
27384;DHT22;14851;51.166;4.760;2022-12-29T06:20:28;10.80;99.90
27384;DHT22;14851;51.166;4.760;2022-12-29T06:22:56;10.90;99.90
27384;DHT22;14851;51.166;4.760;2022-12-29T06:25:22;11.00;99.90
27384;DHT22;14851;51.166;4.760;2022-12-29T06:27:48;11.00;99.90
27384;DHT22;14851;51.166;4.760;2022-12-29T06:30:14;10.80;99.90
27384;DHT22;14851;51.166;4.760;2022-12-29T06:32:40;10.80;99.90
27384;DHT22;14851;51.166;4.760;2022-12-29T06:35:12;10.80;99.90
27384;DHT22;14851;51.166;4.760;2022-12-29T06:37:45;10.80;99.90
27384;DHT22;14851;51.166;4.760;2022-12-29T06:40:11;10.80;99.90
27384;DHT22;14851;51.166;4.760;2022-12-29T06:43:01;10.90;99.90
27384;DHT22;14851;51.166;4.760;2022-12-29T06:45:45;10.80;99.90
27384;DHT22;14851;51.166;4.760;2022-12-29T06:48:13;10.70;99.90
27384;DHT22;14851;51.166;4.760;2022-12-29T06:50:39;11.00;99.90
27384;DHT22;14851;51.166;4.760;2022-12-29T06:53:05;10.90;99.90
27384;DHT22;14851;51.166;4.760;2022-12-29T06:55:33;10.70;99.90
27384;DHT22;14851;51.166;4.760;2022-12-29T06:57:59;10.70;99.90
27384;DHT22;14851;51.166;4.760;2022-12-29T07:00:29;10.70;99.90
27384;DHT22;14851;51.166;4.760;2022-12-29T07:02:55;10.80;99.90
27384;DHT22;14851;51.166;4.760;2022-12-29T07:05:23;10.80;99.90
27384;DHT22;14851;51.166;4.760;2022-12-29T07:07:50;10.80;99.90
27384;DHT22;14851;51.166;4.760;2022-12-29T07:10:16;10.80;99.90
27384;DHT22;14851;51.166;4.760;2022-12-29T07:12:42;10.90;99.90
27384;DHT22;14851;51.166;4.760;2022-12-29T07:15:08;10.90;99.90
27384;DHT22;14851;51.166;4.760;2022-12-29T07:17:34;10.70;99.90
27384;DHT22;14851;51.166;4.760;2022-12-29T07:20:00;10.80;99.90
27384;DHT22;14851;51.166;4.760;2022-12-29T07:22:27;10.80;99.90
27384;DHT22;14851;51.166;4.760;2022-12-29T07:24:57;10.90;99.90
27384;DHT22;14851;51.166;4.760;2022-12-29T07:27:25;10.70;99.90
27384;DHT22;14851;51.166;4.760;2022-12-29T07:29:51;10.80;99.90
27384;DHT22;14851;51.166;4.760;2022-12-29T07:32:16;10.80;99.90
27384;DHT22;14851;51.166;4.760;2022-12-29T07:34:42;10.80;99.90
27384;DHT22;14851;51.166;4.760;2022-12-29T07:37:11;10.80;99.90
27384;DHT22;14851;51.166;4.760;2022-12-29T07:39:39;10.70;99.90
27384;DHT22;14851;51.166;4.760;2022-12-29T07:42:04;10.70;99.90
27384;DHT22;14851;51.166;4.760;2022-12-29T07:44:37;10.60;99.90
27384;DHT22;14851;51.166;4.760;2022-12-29T07:47:15;10.70;99.90
27384;DHT22;14851;51.166;4.760;2022-12-29T07:49:41;10.70;99.90
27384;DHT22;14851;51.166;4.760;2022-12-29T07:52:08;10.70;99.90
27384;DHT22;14851;51.166;4.760;2022-12-29T07:54:34;10.90;99.90
27384;DHT22;14851;51.166;4.760;2022-12-29T07:57:01;10.90;99.90
27384;DHT22;14851;51.166;4.760;2022-12-29T07:59:27;10.80;99.90
27384;DHT22;14851;51.166;4.760;2022-12-29T08:01:53;10.80;99.90
27384;DHT22;14851;51.166;4.760;2022-12-29T08:04:19;11.00;99.90
27384;DHT22;14851;51.166;4.760;2022-12-29T08:06:48;11.00;99.90
27384;DHT22;14851;51.166;4.760;2022-12-29T08:09:14;11.10;99.90
27384;DHT22;14851;51.166;4.760;2022-12-29T08:11:43;11.10;99.90
27384;DHT22;14851;51.166;4.760;2022-12-29T08:14:09;11.10;99.90
27384;DHT22;14851;51.166;4.760;2022-12-29T08:16:36;11.30;99.90
27384;DHT22;14851;51.166;4.760;2022-12-29T08:19:02;11.10;99.90
27384;DHT22;14851;51.166;4.760;2022-12-29T08:21:30;11.20;99.90
27384;DHT22;14851;51.166;4.760;2022-12-29T08:23:56;10.90;99.90
27384;DHT22;14851;51.166;4.760;2022-12-29T08:26:22;10.80;99.90
27384;DHT22;14851;51.166;4.760;2022-12-29T08:28:48;10.80;99.90
27384;DHT22;14851;51.166;4.760;2022-12-29T08:31:14;10.80;99.90
27384;DHT22;14851;51.166;4.760;2022-12-29T08:33:40;10.90;99.90
27384;DHT22;14851;51.166;4.760;2022-12-29T08:36:09;11.00;99.90
27384;DHT22;14851;51.166;4.760;2022-12-29T08:38:36;11.00;99.90
27384;DHT22;14851;51.166;4.760;2022-12-29T08:41:04;11.00;99.90
27384;DHT22;14851;51.166;4.760;2022-12-29T08:43:31;11.10;99.90
27384;DHT22;14851;51.166;4.760;2022-12-29T08:45:58;11.00;99.90
27384;DHT22;14851;51.166;4.760;2022-12-29T08:48:26;11.30;99.90
27384;DHT22;14851;51.166;4.760;2022-12-29T08:50:52;11.30;99.90
27384;DHT22;14851;51.166;4.760;2022-12-29T08:53:23;11.00;99.90
27384;DHT22;14851;51.166;4.760;2022-12-29T08:55:56;10.90;99.90
27384;DHT22;14851;51.166;4.760;2022-12-29T08:58:25;10.80;99.90
27384;DHT22;14851;51.166;4.760;2022-12-29T09:00:56;10.80;99.90
27384;DHT22;14851;51.166;4.760;2022-12-29T09:03:23;11.00;99.90
27384;DHT22;14851;51.166;4.760;2022-12-29T09:05:50;11.00;99.90
27384;DHT22;14851;51.166;4.760;2022-12-29T09:08:19;10.90;99.90
27384;DHT22;14851;51.166;4.760;2022-12-29T09:10:46;11.00;99.90
27384;DHT22;14851;51.166;4.760;2022-12-29T09:13:13;10.90;99.90
27384;DHT22;14851;51.166;4.760;2022-12-29T09:15:40;10.70;99.90
27384;DHT22;14851;51.166;4.760;2022-12-29T09:18:08;10.60;99.90
27384;DHT22;14851;51.166;4.760;2022-12-29T09:20:34;10.70;99.90
27384;DHT22;14851;51.166;4.760;2022-12-29T09:23:04;10.70;99.90
27384;DHT22;14851;51.166;4.760;2022-12-29T09:25:32;10.50;99.90
27384;DHT22;14851;51.166;4.760;2022-12-29T09:28:00;10.50;99.90
27384;DHT22;14851;51.166;4.760;2022-12-29T09:30:28;10.50;99.90
27384;DHT22;14851;51.166;4.760;2022-12-29T09:32:55;10.40;99.90
27384;DHT22;14851;51.166;4.760;2022-12-29T09:35:22;10.40;99.90
27384;DHT22;14851;51.166;4.760;2022-12-29T09:37:47;10.40;99.90
27384;DHT22;14851;51.166;4.760;2022-12-29T09:40:31;10.40;99.90
27384;DHT22;14851;51.166;4.760;2022-12-29T09:48:34;10.40;99.90
27384;DHT22;14851;51.166;4.760;2022-12-29T09:51:08;10.40;99.90
27384;DHT22;14851;51.166;4.760;2022-12-29T09:53:39;10.40;99.90
27384;DHT22;14851;51.166;4.760;2022-12-29T09:56:15;10.30;99.90
27384;DHT22;14851;51.166;4.760;2022-12-29T09:59:00;10.30;99.90
27384;DHT22;14851;51.166;4.760;2022-12-29T10:01:51;10.40;99.90
27384;DHT22;14851;51.166;4.760;2022-12-29T10:04:17;10.40;99.90
27384;DHT22;14851;51.166;4.760;2022-12-29T10:06:54;10.40;99.90
27384;DHT22;14851;51.166;4.760;2022-12-29T10:17:59;10.30;99.90
27384;DHT22;14851;51.166;4.760;2022-12-29T10:23:41;10.30;99.90
27384;DHT22;14851;51.166;4.760;2022-12-29T10:26:15;10.30;99.90
27384;DHT22;14851;51.166;4.760;2022-12-29T10:29:03;10.20;99.90
27384;DHT22;14851;51.166;4.760;2022-12-29T10:31:48;10.30;99.90
27384;DHT22;14851;51.166;4.760;2022-12-29T10:36:53;10.30;99.90
27384;DHT22;14851;51.166;4.760;2022-12-29T10:42:45;10.20;99.90
27384;DHT22;14851;51.166;4.760;2022-12-29T10:44:50;10.20;99.90
27384;DHT22;14851;51.166;4.760;2022-12-29T10:47:28;10.10;99.90
27384;DHT22;14851;51.166;4.760;2022-12-29T10:49:56;10.20;99.90
27384;DHT22;14851;51.166;4.760;2022-12-29T10:52:24;10.20;99.90
27384;DHT22;14851;51.166;4.760;2022-12-29T10:57:37;10.10;99.90
27384;DHT22;14851;51.166;4.760;2022-12-29T11:00:17;10.10;99.90
27384;DHT22;14851;51.166;4.760;2022-12-29T11:08:04;10.30;99.90
27384;DHT22;14851;51.166;4.760;2022-12-29T11:10:36;10.30;99.90
27384;DHT22;14851;51.166;4.760;2022-12-29T11:13:24;10.30;99.90
27384;DHT22;14851;51.166;4.760;2022-12-29T11:15:53;10.40;99.90
27384;DHT22;14851;51.166;4.760;2022-12-29T11:18:25;10.40;99.90
27384;DHT22;14851;51.166;4.760;2022-12-29T11:20:57;10.50;99.90
27384;DHT22;14851;51.166;4.760;2022-12-29T11:23:33;10.50;99.90
27384;DHT22;14851;51.166;4.760;2022-12-29T11:26:07;10.60;99.90
27384;DHT22;14851;51.166;4.760;2022-12-29T11:28:34;10.60;99.90
27384;DHT22;14851;51.166;4.760;2022-12-29T11:31:02;10.60;99.90
27384;DHT22;14851;51.166;4.760;2022-12-29T11:33:33;10.70;99.90
27384;DHT22;14851;51.166;4.760;2022-12-29T11:36:13;10.60;99.90
27384;DHT22;14851;51.166;4.760;2022-12-29T11:38:51;10.70;99.90
27384;DHT22;14851;51.166;4.760;2022-12-29T11:41:28;10.70;99.90
27384;DHT22;14851;51.166;4.760;2022-12-29T11:44:04;10.60;99.90
27384;DHT22;14851;51.166;4.760;2022-12-29T11:46:36;10.60;99.90
27384;DHT22;14851;51.166;4.760;2022-12-29T11:49:04;10.70;99.90
27384;DHT22;14851;51.166;4.760;2022-12-29T11:51:43;10.70;99.90
27384;DHT22;14851;51.166;4.760;2022-12-29T11:54:27;10.70;99.90
27384;DHT22;14851;51.166;4.760;2022-12-29T11:56:57;10.70;99.90
27384;DHT22;14851;51.166;4.760;2022-12-29T11:59:37;10.70;99.90
27384;DHT22;14851;51.166;4.760;2022-12-29T12:04:58;10.70;99.90
27384;DHT22;14851;51.166;4.760;2022-12-29T12:07:42;10.70;99.90
27384;DHT22;14851;51.166;4.760;2022-12-29T12:10:21;10.60;99.90
27384;DHT22;14851;51.166;4.760;2022-12-29T12:12:54;10.60;99.90
27384;DHT22;14851;51.166;4.760;2022-12-29T12:15:36;10.60;99.90
27384;DHT22;14851;51.166;4.760;2022-12-29T12:18:12;10.60;99.90
27384;DHT22;14851;51.166;4.760;2022-12-29T12:20:58;10.60;99.90
27384;DHT22;14851;51.166;4.760;2022-12-29T12:23:50;10.70;99.90
27384;DHT22;14851;51.166;4.760;2022-12-29T12:26:21;10.80;99.90
27384;DHT22;14851;51.166;4.760;2022-12-29T12:29:10;10.70;99.90
27384;DHT22;14851;51.166;4.760;2022-12-29T12:32:05;10.70;99.90
27384;DHT22;14851;51.166;4.760;2022-12-29T12:34:42;10.70;99.90
27384;DHT22;14851;51.166;4.760;2022-12-29T12:45:34;10.50;99.90
27384;DHT22;14851;51.166;4.760;2022-12-29T12:50:59;10.40;99.90
27384;DHT22;14851;51.166;4.760;2022-12-29T12:54:01;10.30;99.90
27384;DHT22;14851;51.166;4.760;2022-12-29T12:56:43;10.30;99.90
27384;DHT22;14851;51.166;4.760;2022-12-29T13:26:57;10.40;99.90
27384;DHT22;14851;51.166;4.760;2022-12-29T13:37:54;10.50;99.90
27384;DHT22;14851;51.166;4.760;2022-12-29T13:40:25;10.50;99.90
27384;DHT22;14851;51.166;4.760;2022-12-29T13:42:55;10.50;99.90
27384;DHT22;14851;51.166;4.760;2022-12-29T13:45:24;10.50;99.90
27384;DHT22;14851;51.166;4.760;2022-12-29T13:50:28;10.50;99.90
27384;DHT22;14851;51.166;4.760;2022-12-29T14:07:56;10.40;99.90
27384;DHT22;14851;51.166;4.760;2022-12-29T14:10:36;10.30;99.90
27384;DHT22;14851;51.166;4.760;2022-12-29T14:13:10;10.30;99.90
27384;DHT22;14851;51.166;4.760;2022-12-29T14:15:39;10.20;99.90
27384;DHT22;14851;51.166;4.760;2022-12-29T14:18:16;10.20;99.90
27384;DHT22;14851;51.166;4.760;2022-12-29T14:20:56;10.10;99.90
27384;DHT22;14851;51.166;4.760;2022-12-29T14:28:36;9.90;99.90
27384;DHT22;14851;51.166;4.760;2022-12-29T14:36:40;9.60;99.90
27384;DHT22;14851;51.166;4.760;2022-12-29T14:39:33;9.50;99.90
27384;DHT22;14851;51.166;4.760;2022-12-29T14:47:24;9.40;99.90
27384;DHT22;14851;51.166;4.760;2022-12-29T14:49:53;9.40;99.90
27384;DHT22;14851;51.166;4.760;2022-12-29T14:52:22;9.40;99.90
27384;DHT22;14851;51.166;4.760;2022-12-29T14:54:53;9.30;99.90
27384;DHT22;14851;51.166;4.760;2022-12-29T14:59:53;9.20;99.90
27384;DHT22;14851;51.166;4.760;2022-12-29T15:02:23;9.20;99.90
27384;DHT22;14851;51.166;4.760;2022-12-29T15:04:51;9.10;99.90
27384;DHT22;14851;51.166;4.760;2022-12-29T15:07:19;9.10;99.90
27384;DHT22;14851;51.166;4.760;2022-12-29T15:09:53;9.10;99.90
27384;DHT22;14851;51.166;4.760;2022-12-29T15:12:33;9.00;99.90
27384;DHT22;14851;51.166;4.760;2022-12-29T15:15:02;9.00;99.90
27384;DHT22;14851;51.166;4.760;2022-12-29T15:17:44;9.00;99.90
27384;DHT22;14851;51.166;4.760;2022-12-29T15:20:21;8.90;99.90
27384;DHT22;14851;51.166;4.760;2022-12-29T15:22:56;8.90;99.90
27384;DHT22;14851;51.166;4.760;2022-12-29T15:25:24;8.90;99.90
27384;DHT22;14851;51.166;4.760;2022-12-29T15:28:01;8.90;99.90
27384;DHT22;14851;51.166;4.760;2022-12-29T15:30:27;8.80;99.90
27384;DHT22;14851;51.166;4.760;2022-12-29T15:32:54;8.90;99.90
27384;DHT22;14851;51.166;4.760;2022-12-29T15:35:35;8.80;99.90
27384;DHT22;14851;51.166;4.760;2022-12-29T15:38:14;8.80;99.90
27384;DHT22;14851;51.166;4.760;2022-12-29T15:40:43;8.80;99.90
27384;DHT22;14851;51.166;4.760;2022-12-29T15:43:29;8.80;99.90
27384;DHT22;14851;51.166;4.760;2022-12-29T15:46:02;8.70;99.90
27384;DHT22;14851;51.166;4.760;2022-12-29T15:48:28;8.70;99.90
27384;DHT22;14851;51.166;4.760;2022-12-29T15:50:55;8.80;99.90
27384;DHT22;14851;51.166;4.760;2022-12-29T15:55:52;8.80;99.90
27384;DHT22;14851;51.166;4.760;2022-12-29T15:58:23;8.80;99.90
27384;DHT22;14851;51.166;4.760;2022-12-29T16:01:00;8.80;99.90
27384;DHT22;14851;51.166;4.760;2022-12-29T16:03:32;8.70;99.90
27384;DHT22;14851;51.166;4.760;2022-12-29T16:06:33;8.70;99.90
27384;DHT22;14851;51.166;4.760;2022-12-29T16:11:37;8.70;99.90
27384;DHT22;14851;51.166;4.760;2022-12-29T16:14:14;8.70;99.90
27384;DHT22;14851;51.166;4.760;2022-12-29T16:16:43;8.70;99.90
27384;DHT22;14851;51.166;4.760;2022-12-29T16:19:24;8.80;99.90
27384;DHT22;14851;51.166;4.760;2022-12-29T16:21:51;8.70;99.90
27384;DHT22;14851;51.166;4.760;2022-12-29T16:24:20;8.70;99.90
27384;DHT22;14851;51.166;4.760;2022-12-29T16:26:59;8.70;99.90
27384;DHT22;14851;51.166;4.760;2022-12-29T16:29:29;8.70;99.90
27384;DHT22;14851;51.166;4.760;2022-12-29T16:31:57;8.70;99.90
27384;DHT22;14851;51.166;4.760;2022-12-29T16:34:31;8.70;99.90
27384;DHT22;14851;51.166;4.760;2022-12-29T16:37:44;8.70;99.90
27384;DHT22;14851;51.166;4.760;2022-12-29T16:39:51;8.70;99.90
27384;DHT22;14851;51.166;4.760;2022-12-29T16:42:46;8.70;99.90
27384;DHT22;14851;51.166;4.760;2022-12-29T16:45:31;8.60;99.90
27384;DHT22;14851;51.166;4.760;2022-12-29T16:50:33;8.50;99.90
27384;DHT22;14851;51.166;4.760;2022-12-29T16:53:02;8.50;99.90
27384;DHT22;14851;51.166;4.760;2022-12-29T16:55:32;8.40;99.90
27384;DHT22;14851;51.166;4.760;2022-12-29T16:58:02;8.40;99.90
27384;DHT22;14851;51.166;4.760;2022-12-29T17:00:34;8.50;99.90
27384;DHT22;14851;51.166;4.760;2022-12-29T17:03:02;8.60;99.90
27384;DHT22;14851;51.166;4.760;2022-12-29T17:05:29;8.50;99.90
27384;DHT22;14851;51.166;4.760;2022-12-29T17:07:55;8.50;99.90
27384;DHT22;14851;51.166;4.760;2022-12-29T17:10:26;8.40;99.90
27384;DHT22;14851;51.166;4.760;2022-12-29T17:13:15;8.40;99.90
27384;DHT22;14851;51.166;4.760;2022-12-29T17:15:42;8.40;99.90
27384;DHT22;14851;51.166;4.760;2022-12-29T17:18:08;8.30;99.90
27384;DHT22;14851;51.166;4.760;2022-12-29T17:20:36;8.30;99.90
27384;DHT22;14851;51.166;4.760;2022-12-29T17:23:13;8.30;99.90
27384;DHT22;14851;51.166;4.760;2022-12-29T17:25:40;8.20;99.90
27384;DHT22;14851;51.166;4.760;2022-12-29T17:30:47;8.20;99.90
27384;DHT22;14851;51.166;4.760;2022-12-29T17:33:18;8.30;99.90
27384;DHT22;14851;51.166;4.760;2022-12-29T17:35:47;8.30;99.90
27384;DHT22;14851;51.166;4.760;2022-12-29T17:38:17;8.30;99.90
27384;DHT22;14851;51.166;4.760;2022-12-29T17:40:44;8.20;99.90
27384;DHT22;14851;51.166;4.760;2022-12-29T17:43:13;8.20;99.90
27384;DHT22;14851;51.166;4.760;2022-12-29T17:45:40;8.10;99.90
27384;DHT22;14851;51.166;4.760;2022-12-29T17:48:17;8.20;99.90
27384;DHT22;14851;51.166;4.760;2022-12-29T17:50:44;8.10;99.90
27384;DHT22;14851;51.166;4.760;2022-12-29T17:53:20;8.20;99.90
27384;DHT22;14851;51.166;4.760;2022-12-29T17:55:47;8.20;99.90
27384;DHT22;14851;51.166;4.760;2022-12-29T17:58:25;8.20;99.90
27384;DHT22;14851;51.166;4.760;2022-12-29T18:00:59;8.20;99.90
27384;DHT22;14851;51.166;4.760;2022-12-29T18:03:33;8.10;99.90
27384;DHT22;14851;51.166;4.760;2022-12-29T18:06:01;8.20;99.90
27384;DHT22;14851;51.166;4.760;2022-12-29T18:08:27;8.20;99.90
27384;DHT22;14851;51.166;4.760;2022-12-29T18:10:54;8.10;99.90
27384;DHT22;14851;51.166;4.760;2022-12-29T18:13:30;8.10;99.90
27384;DHT22;14851;51.166;4.760;2022-12-29T18:15:57;8.10;99.90
27384;DHT22;14851;51.166;4.760;2022-12-29T18:18:26;8.10;99.90
27384;DHT22;14851;51.166;4.760;2022-12-29T18:20:55;8.10;99.90
27384;DHT22;14851;51.166;4.760;2022-12-29T18:26:02;8.10;99.90
27384;DHT22;14851;51.166;4.760;2022-12-29T18:28:31;8.00;99.90
27384;DHT22;14851;51.166;4.760;2022-12-29T18:30:59;8.00;99.90
27384;DHT22;14851;51.166;4.760;2022-12-29T18:33:29;8.00;99.90
27384;DHT22;14851;51.166;4.760;2022-12-29T18:36:03;8.10;99.90
27384;DHT22;14851;51.166;4.760;2022-12-29T18:38:30;8.10;99.90
27384;DHT22;14851;51.166;4.760;2022-12-29T18:40:57;8.20;99.90
27384;DHT22;14851;51.166;4.760;2022-12-29T18:43:23;8.20;99.90
27384;DHT22;14851;51.166;4.760;2022-12-29T18:45:49;8.10;99.90
27384;DHT22;14851;51.166;4.760;2022-12-29T18:48:18;8.10;99.90
27384;DHT22;14851;51.166;4.760;2022-12-29T18:50:47;8.00;99.90
27384;DHT22;14851;51.166;4.760;2022-12-29T18:53:20;8.00;99.90
27384;DHT22;14851;51.166;4.760;2022-12-29T18:55:46;8.00;99.90
27384;DHT22;14851;51.166;4.760;2022-12-29T18:58:12;8.00;99.90
27384;DHT22;14851;51.166;4.760;2022-12-29T19:00:38;8.00;99.90